sensor_id;sensor_type;location;lat;lon;timestamp;pressure;altitude;pressure_sealevel;temperature;humidity
10060;BME280;5069;49.306;8.636;2023-06-22T00:00:13;100402.22;;;24.43;86.21
10060;BME280;5069;49.306;8.636;2023-06-22T00:03:15;100400.22;;;24.45;83.06
10060;BME280;5069;49.306;8.636;2023-06-22T00:06:16;100405.06;;;24.51;83.04
10060;BME280;5069;49.306;8.636;2023-06-22T00:09:18;100400.81;;;24.58;82.34
10060;BME280;5069;49.306;8.636;2023-06-22T00:12:19;100402.94;;;24.64;81.51
10060;BME280;5069;49.306;8.636;2023-06-22T00:15:21;100406.63;;;24.63;81.51
10060;BME280;5069;49.306;8.636;2023-06-22T00:18:22;100398.53;;;24.63;81.00
10060;BME280;5069;49.306;8.636;2023-06-22T00:21:29;100405.47;;;24.56;80.77
10060;BME280;5069;49.306;8.636;2023-06-22T00:24:31;100403.91;;;24.44;81.59
10060;BME280;5069;49.306;8.636;2023-06-22T00:27:32;100404.06;;;24.42;82.03
10060;BME280;5069;49.306;8.636;2023-06-22T00:30:34;100403.59;;;24.27;81.10
10060;BME280;5069;49.306;8.636;2023-06-22T00:33:36;100415.44;;;24.15;81.72
10060;BME280;5069;49.306;8.636;2023-06-22T00:36:39;100424.78;;;24.02;82.57
10060;BME280;5069;49.306;8.636;2023-06-22T00:39:45;100478.13;;;24.17;80.47
10060;BME280;5069;49.306;8.636;2023-06-22T00:42:46;100549.78;;;24.60;79.77
10060;BME280;5069;49.306;8.636;2023-06-22T00:45:48;100630.66;;;24.60;78.50
10060;BME280;5069;49.306;8.636;2023-06-22T00:48:51;100702.91;;;24.45;78.03
10060;BME280;5069;49.306;8.636;2023-06-22T00:51:55;100740.22;;;24.29;81.02
10060;BME280;5069;49.306;8.636;2023-06-22T00:54:58;100715.16;;;24.17;84.33
10060;BME280;5069;49.306;8.636;2023-06-22T00:58:03;100581.00;;;24.11;88.43
10060;BME280;5069;49.306;8.636;2023-06-22T01:01:07;100500.06;;;24.03;94.98
10060;BME280;5069;49.306;8.636;2023-06-22T01:04:09;100414.44;;;23.67;100.00
10060;BME280;5069;49.306;8.636;2023-06-22T01:07:46;100325.91;;;22.92;100.00
10060;BME280;5069;49.306;8.636;2023-06-22T01:11:01;100335.22;;;22.35;100.00
10060;BME280;5069;49.306;8.636;2023-06-22T01:14:12;100407.50;;;22.38;100.00
10060;BME280;5069;49.306;8.636;2023-06-22T01:17:17;100480.81;;;22.50;100.00
10060;BME280;5069;49.306;8.636;2023-06-22T01:20:21;100518.06;;;22.65;100.00
10060;BME280;5069;49.306;8.636;2023-06-22T01:23:37;100522.69;;;22.63;100.00
10060;BME280;5069;49.306;8.636;2023-06-22T01:30:28;100505.59;;;22.64;100.00
10060;BME280;5069;49.306;8.636;2023-06-22T01:33:34;100493.63;;;22.57;100.00
10060;BME280;5069;49.306;8.636;2023-06-22T01:36:37;100474.94;;;22.56;100.00
10060;BME280;5069;49.306;8.636;2023-06-22T01:39:40;100463.38;;;22.33;100.00
10060;BME280;5069;49.306;8.636;2023-06-22T01:42:42;100465.88;;;22.14;100.00
10060;BME280;5069;49.306;8.636;2023-06-22T01:45:44;100474.75;;;21.92;100.00
10060;BME280;5069;49.306;8.636;2023-06-22T01:48:47;100485.50;;;21.92;100.00
10060;BME280;5069;49.306;8.636;2023-06-22T01:51:48;100482.06;;;21.90;100.00
10060;BME280;5069;49.306;8.636;2023-06-22T01:54:50;100471.00;;;22.06;100.00
10060;BME280;5069;49.306;8.636;2023-06-22T01:57:53;100465.38;;;22.09;100.00
10060;BME280;5069;49.306;8.636;2023-06-22T02:01:10;100466.47;;;22.17;100.00
10060;BME280;5069;49.306;8.636;2023-06-22T02:04:24;100468.56;;;22.14;100.00
10060;BME280;5069;49.306;8.636;2023-06-22T02:07:35;100475.88;;;22.12;100.00
10060;BME280;5069;49.306;8.636;2023-06-22T02:10:40;100486.59;;;22.12;100.00
10060;BME280;5069;49.306;8.636;2023-06-22T02:13:45;100485.16;;;22.08;100.00
10060;BME280;5069;49.306;8.636;2023-06-22T02:16:47;100494.44;;;22.15;100.00
10060;BME280;5069;49.306;8.636;2023-06-22T02:19:49;100488.69;;;22.19;100.00
10060;BME280;5069;49.306;8.636;2023-06-22T02:22:51;100487.84;;;22.19;100.00
10060;BME280;5069;49.306;8.636;2023-06-22T02:25:52;100476.59;;;22.25;100.00
10060;BME280;5069;49.306;8.636;2023-06-22T02:28:54;100461.72;;;22.32;100.00
10060;BME280;5069;49.306;8.636;2023-06-22T02:31:55;100459.72;;;22.34;100.00
10060;BME280;5069;49.306;8.636;2023-06-22T02:34:57;100457.03;;;22.34;100.00
10060;BME280;5069;49.306;8.636;2023-06-22T02:37:59;100452.16;;;22.39;100.00
10060;BME280;5069;49.306;8.636;2023-06-22T02:41:02;100452.16;;;22.39;100.00
10060;BME280;5069;49.306;8.636;2023-06-22T02:44:04;100445.09;;;22.38;100.00
10060;BME280;5069;49.306;8.636;2023-06-22T02:47:05;100445.09;;;22.38;100.00
10060;BME280;5069;49.306;8.636;2023-06-22T02:50:07;100445.81;;;22.40;100.00
10060;BME280;5069;49.306;8.636;2023-06-22T02:53:09;100455.84;;;22.38;100.00
10060;BME280;5069;49.306;8.636;2023-06-22T02:56:18;100441.66;;;22.36;100.00
10060;BME280;5069;49.306;8.636;2023-06-22T02:59:28;100441.91;;;22.33;100.00
10060;BME280;5069;49.306;8.636;2023-06-22T03:02:37;100440.22;;;22.32;100.00
10060;BME280;5069;49.306;8.636;2023-06-22T03:05:39;100433.38;;;22.28;100.00
10060;BME280;5069;49.306;8.636;2023-06-22T03:08:41;100427.16;;;22.27;100.00
10060;BME280;5069;49.306;8.636;2023-06-22T03:11:44;100420.31;;;22.23;100.00
10060;BME280;5069;49.306;8.636;2023-06-22T03:14:46;100412.38;;;22.22;100.00
10060;BME280;5069;49.306;8.636;2023-06-22T03:17:48;100411.19;;;22.26;100.00
10060;BME280;5069;49.306;8.636;2023-06-22T03:20:49;100413.97;;;22.24;100.00
10060;BME280;5069;49.306;8.636;2023-06-22T03:23:51;100412.66;;;22.19;100.00
10060;BME280;5069;49.306;8.636;2023-06-22T03:26:52;100405.56;;;22.18;100.00
10060;BME280;5069;49.306;8.636;2023-06-22T03:29:54;100408.53;;;22.04;100.00
10060;BME280;5069;49.306;8.636;2023-06-22T03:32:56;100407.69;;;22.03;100.00
10060;BME280;5069;49.306;8.636;2023-06-22T03:36:00;100417.31;;;21.95;100.00
10060;BME280;5069;49.306;8.636;2023-06-22T03:39:02;100419.09;;;21.94;100.00
10060;BME280;5069;49.306;8.636;2023-06-22T03:42:04;100430.63;;;21.96;100.00
10060;BME280;5069;49.306;8.636;2023-06-22T03:45:06;100423.88;;;21.91;100.00
10060;BME280;5069;49.306;8.636;2023-06-22T03:48:08;100412.66;;;21.85;100.00
10060;BME280;5069;49.306;8.636;2023-06-22T03:51:09;100415.19;;;21.76;100.00
10060;BME280;5069;49.306;8.636;2023-06-22T03:54:11;100419.22;;;21.70;100.00
10060;BME280;5069;49.306;8.636;2023-06-22T03:57:12;100421.56;;;21.64;100.00
10060;BME280;5069;49.306;8.636;2023-06-22T04:00:14;100416.31;;;21.62;100.00
10060;BME280;5069;49.306;8.636;2023-06-22T04:03:17;100432.16;;;21.65;100.00
10060;BME280;5069;49.306;8.636;2023-06-22T04:06:22;100422.44;;;21.64;100.00
10060;BME280;5069;49.306;8.636;2023-06-22T04:09:24;100415.94;;;21.67;100.00
10060;BME280;5069;49.306;8.636;2023-06-22T04:12:25;100414.00;;;21.69;100.00
10060;BME280;5069;49.306;8.636;2023-06-22T04:15:27;100408.28;;;21.73;100.00
10060;BME280;5069;49.306;8.636;2023-06-22T04:18:28;100406.19;;;21.77;100.00
10060;BME280;5069;49.306;8.636;2023-06-22T04:21:30;100402.41;;;21.79;100.00
10060;BME280;5069;49.306;8.636;2023-06-22T04:24:31;100399.47;;;21.82;100.00
10060;BME280;5069;49.306;8.636;2023-06-22T04:27:33;100390.72;;;21.80;100.00
10060;BME280;5069;49.306;8.636;2023-06-22T04:30:38;100397.06;;;21.79;100.00
10060;BME280;5069;49.306;8.636;2023-06-22T04:33:47;100388.03;;;21.80;100.00
10060;BME280;5069;49.306;8.636;2023-06-22T04:36:48;100382.88;;;21.89;100.00
10060;BME280;5069;49.306;8.636;2023-06-22T04:39:50;100385.00;;;21.96;100.00
10060;BME280;5069;49.306;8.636;2023-06-22T04:42:52;100379.13;;;22.02;100.00
10060;BME280;5069;49.306;8.636;2023-06-22T04:45:54;100384.59;;;22.12;100.00
10060;BME280;5069;49.306;8.636;2023-06-22T04:48:56;100404.47;;;22.20;100.00
10060;BME280;5069;49.306;8.636;2023-06-22T04:51:58;100381.03;;;22.22;100.00
10060;BME280;5069;49.306;8.636;2023-06-22T04:55:00;100376.75;;;22.31;100.00
10060;BME280;5069;49.306;8.636;2023-06-22T04:58:01;100377.72;;;22.30;100.00
10060;BME280;5069;49.306;8.636;2023-06-22T05:01:06;100375.78;;;22.32;100.00
10060;BME280;5069;49.306;8.636;2023-06-22T05:04:10;100369.63;;;22.41;100.00
10060;BME280;5069;49.306;8.636;2023-06-22T05:07:11;100367.66;;;22.43;100.00
10060;BME280;5069;49.306;8.636;2023-06-22T05:10:14;100362.75;;;22.48;100.00
10060;BME280;5069;49.306;8.636;2023-06-22T05:13:15;100368.59;;;22.53;100.00
10060;BME280;5069;49.306;8.636;2023-06-22T05:16:17;100365.66;;;22.56;100.00
10060;BME280;5069;49.306;8.636;2023-06-22T05:19:18;100362.19;;;22.65;100.00
10060;BME280;5069;49.306;8.636;2023-06-22T05:22:20;100357.69;;;22.66;100.00
10060;BME280;5069;49.306;8.636;2023-06-22T05:25:21;100356.06;;;22.75;100.00
10060;BME280;5069;49.306;8.636;2023-06-22T05:28:23;100350.47;;;22.78;100.00
10060;BME280;5069;49.306;8.636;2023-06-22T05:31:25;100348.75;;;22.77;100.00
10060;BME280;5069;49.306;8.636;2023-06-22T05:34:26;100340.94;;;22.74;100.00
10060;BME280;5069;49.306;8.636;2023-06-22T05:37:28;100350.63;;;22.86;100.00
10060;BME280;5069;49.306;8.636;2023-06-22T05:40:30;100354.25;;;22.96;100.00
10060;BME280;5069;49.306;8.636;2023-06-22T05:43:32;100355.53;;;23.01;100.00
10060;BME280;5069;49.306;8.636;2023-06-22T05:46:33;100360.28;;;23.09;100.00
10060;BME280;5069;49.306;8.636;2023-06-22T05:49:35;100359.47;;;23.18;100.00
10060;BME280;5069;49.306;8.636;2023-06-22T05:52:36;100352.03;;;23.31;100.00
10060;BME280;5069;49.306;8.636;2023-06-22T05:55:38;100355.50;;;23.43;100.00
10060;BME280;5069;49.306;8.636;2023-06-22T05:58:39;100343.63;;;23.45;100.00
10060;BME280;5069;49.306;8.636;2023-06-22T06:01:41;100340.69;;;23.48;100.00
10060;BME280;5069;49.306;8.636;2023-06-22T06:04:42;100337.03;;;23.50;100.00
10060;BME280;5069;49.306;8.636;2023-06-22T06:07:45;100341.13;;;23.54;100.00
10060;BME280;5069;49.306;8.636;2023-06-22T06:10:47;100341.56;;;23.59;100.00
10060;BME280;5069;49.306;8.636;2023-06-22T06:13:49;100341.03;;;23.65;100.00
10060;BME280;5069;49.306;8.636;2023-06-22T06:16:50;100364.91;;;23.79;100.00
10060;BME280;5069;49.306;8.636;2023-06-22T06:19:52;100357.38;;;23.82;100.00
10060;BME280;5069;49.306;8.636;2023-06-22T06:22:54;100349.38;;;23.92;100.00
10060;BME280;5069;49.306;8.636;2023-06-22T06:25:55;100341.16;;;24.03;100.00
10060;BME280;5069;49.306;8.636;2023-06-22T06:28:57;100334.34;;;23.99;100.00
10060;BME280;5069;49.306;8.636;2023-06-22T06:31:58;100337.19;;;24.07;100.00
10060;BME280;5069;49.306;8.636;2023-06-22T06:35:00;100336.34;;;24.16;100.00
10060;BME280;5069;49.306;8.636;2023-06-22T06:38:01;100344.88;;;24.21;100.00
10060;BME280;5069;49.306;8.636;2023-06-22T06:41:03;100345.78;;;24.32;100.00
10060;BME280;5069;49.306;8.636;2023-06-22T06:44:05;100344.63;;;24.34;100.00
10060;BME280;5069;49.306;8.636;2023-06-22T06:47:06;100340.38;;;24.51;100.00
10060;BME280;5069;49.306;8.636;2023-06-22T06:50:08;100341.38;;;24.69;100.00
10060;BME280;5069;49.306;8.636;2023-06-22T06:53:10;100327.59;;;24.72;96.36
10060;BME280;5069;49.306;8.636;2023-06-22T06:56:12;100318.81;;;24.70;96.63
10060;BME280;5069;49.306;8.636;2023-06-22T06:59:14;100318.81;;;24.80;97.57
10060;BME280;5069;49.306;8.636;2023-06-22T07:02:16;100313.28;;;24.81;96.54
10060;BME280;5069;49.306;8.636;2023-06-22T07:05:18;100322.09;;;24.93;95.36
10060;BME280;5069;49.306;8.636;2023-06-22T07:08:19;100315.94;;;25.00;94.77
10060;BME280;5069;49.306;8.636;2023-06-22T07:11:21;100311.41;;;25.10;93.12
10060;BME280;5069;49.306;8.636;2023-06-22T07:14:23;100313.75;;;25.23;93.50
10060;BME280;5069;49.306;8.636;2023-06-22T07:17:24;100312.75;;;25.34;91.98
10060;BME280;5069;49.306;8.636;2023-06-22T07:20:26;100317.78;;;25.46;91.47
10060;BME280;5069;49.306;8.636;2023-06-22T07:23:28;100291.88;;;25.63;88.21
10060;BME280;5069;49.306;8.636;2023-06-22T07:26:29;100290.28;;;25.70;87.44
10060;BME280;5069;49.306;8.636;2023-06-22T07:29:31;100306.88;;;25.75;87.38
10060;BME280;5069;49.306;8.636;2023-06-22T07:32:33;100279.13;;;25.83;85.94
10060;BME280;5069;49.306;8.636;2023-06-22T07:35:35;100302.75;;;25.99;86.67
10060;BME280;5069;49.306;8.636;2023-06-22T07:38:36;100281.63;;;26.12;84.70
10060;BME280;5069;49.306;8.636;2023-06-22T07:41:39;100273.19;;;26.15;84.44
10060;BME280;5069;49.306;8.636;2023-06-22T07:44:42;100284.72;;;26.17;83.99
10060;BME280;5069;49.306;8.636;2023-06-22T07:47:43;100300.72;;;26.28;83.96
10060;BME280;5069;49.306;8.636;2023-06-22T07:50:45;100294.31;;;26.29;82.09
10060;BME280;5069;49.306;8.636;2023-06-22T07:53:46;100298.66;;;26.40;80.50
10060;BME280;5069;49.306;8.636;2023-06-22T07:56:48;100299.50;;;26.40;81.21
10060;BME280;5069;49.306;8.636;2023-06-22T07:59:49;100303.97;;;26.49;80.71
10060;BME280;5069;49.306;8.636;2023-06-22T08:02:51;100289.28;;;26.69;79.74
10060;BME280;5069;49.306;8.636;2023-06-22T08:05:53;100286.31;;;26.81;77.47
10060;BME280;5069;49.306;8.636;2023-06-22T08:08:54;100293.19;;;26.93;77.81
10060;BME280;5069;49.306;8.636;2023-06-22T08:11:59;100294.91;;;26.94;75.96
10060;BME280;5069;49.306;8.636;2023-06-22T08:15:00;100296.75;;;26.93;75.89
10060;BME280;5069;49.306;8.636;2023-06-22T08:18:02;100288.50;;;27.03;76.10
10060;BME280;5069;49.306;8.636;2023-06-22T08:21:03;100282.88;;;27.22;71.47
10060;BME280;5069;49.306;8.636;2023-06-22T08:24:06;100284.13;;;27.36;71.35
10060;BME280;5069;49.306;8.636;2023-06-22T08:27:09;100292.53;;;27.50;72.06
10060;BME280;5069;49.306;8.636;2023-06-22T08:30:13;100293.56;;;27.58;72.41
10060;BME280;5069;49.306;8.636;2023-06-22T08:33:14;100290.19;;;27.64;70.87
10060;BME280;5069;49.306;8.636;2023-06-22T08:36:28;100292.91;;;27.64;72.08
10060;BME280;5069;49.306;8.636;2023-06-22T08:39:32;100284.16;;;27.78;68.98
10060;BME280;5069;49.306;8.636;2023-06-22T08:42:37;100284.88;;;27.88;67.52
10060;BME280;5069;49.306;8.636;2023-06-22T08:45:39;100286.06;;;27.93;67.12
10060;BME280;5069;49.306;8.636;2023-06-22T08:48:41;100298.09;;;27.99;67.25
10060;BME280;5069;49.306;8.636;2023-06-22T08:51:43;100297.41;;;27.89;67.29
10060;BME280;5069;49.306;8.636;2023-06-22T08:54:47;100294.34;;;27.84;67.04
10060;BME280;5069;49.306;8.636;2023-06-22T08:57:49;100317.78;;;28.09;68.32
10060;BME280;5069;49.306;8.636;2023-06-22T09:00:50;100316.50;;;28.38;65.41
10060;BME280;5069;49.306;8.636;2023-06-22T09:03:53;100330.09;;;28.78;63.99
10060;BME280;5069;49.306;8.636;2023-06-22T09:06:59;100312.78;;;28.63;61.97
10060;BME280;5069;49.306;8.636;2023-06-22T09:10:01;100325.69;;;28.77;64.74
10060;BME280;5069;49.306;8.636;2023-06-22T09:13:04;100301.94;;;29.03;63.67
10060;BME280;5069;49.306;8.636;2023-06-22T09:16:06;100290.72;;;29.14;63.20
10060;BME280;5069;49.306;8.636;2023-06-22T09:19:08;100267.94;;;29.24;61.26
10060;BME280;5069;49.306;8.636;2023-06-22T09:22:09;100262.19;;;29.27;59.06
10060;BME280;5069;49.306;8.636;2023-06-22T09:25:11;100240.75;;;29.48;59.48
10060;BME280;5069;49.306;8.636;2023-06-22T09:28:12;100229.41;;;29.28;57.20
10060;BME280;5069;49.306;8.636;2023-06-22T09:31:14;100223.19;;;29.20;57.44
10060;BME280;5069;49.306;8.636;2023-06-22T09:34:17;100220.28;;;29.21;57.67
10060;BME280;5069;49.306;8.636;2023-06-22T09:37:21;100220.53;;;29.03;58.16
10060;BME280;5069;49.306;8.636;2023-06-22T09:40:22;100217.13;;;29.01;58.50
10060;BME280;5069;49.306;8.636;2023-06-22T09:43:24;100217.75;;;29.20;57.60
10060;BME280;5069;49.306;8.636;2023-06-22T09:46:25;100219.06;;;29.32;57.58
10060;BME280;5069;49.306;8.636;2023-06-22T09:49:27;100218.63;;;29.51;56.69
10060;BME280;5069;49.306;8.636;2023-06-22T09:52:46;100225.59;;;29.53;57.04
10060;BME280;5069;49.306;8.636;2023-06-22T09:55:51;100214.06;;;29.82;56.51
10060;BME280;5069;49.306;8.636;2023-06-22T09:58:53;100207.44;;;30.08;56.70
10060;BME280;5069;49.306;8.636;2023-06-22T10:02:10;100199.75;;;30.34;55.81
10060;BME280;5069;49.306;8.636;2023-06-22T10:05:12;100190.94;;;30.32;53.21
10060;BME280;5069;49.306;8.636;2023-06-22T10:08:14;100177.66;;;30.14;54.90
10060;BME280;5069;49.306;8.636;2023-06-22T10:11:15;100171.66;;;30.19;55.08
10060;BME280;5069;49.306;8.636;2023-06-22T10:14:17;100166.75;;;30.37;52.93
10060;BME280;5069;49.306;8.636;2023-06-22T10:17:18;100165.38;;;30.41;52.24
10060;BME280;5069;49.306;8.636;2023-06-22T10:20:20;100159.19;;;30.47;53.29
10060;BME280;5069;49.306;8.636;2023-06-22T10:23:23;100153.81;;;30.24;53.67
10060;BME280;5069;49.306;8.636;2023-06-22T10:26:25;100140.72;;;30.20;55.07
10060;BME280;5069;49.306;8.636;2023-06-22T10:29:27;100140.66;;;30.28;54.45
10060;BME280;5069;49.306;8.636;2023-06-22T10:32:28;100157.44;;;30.17;54.50
10060;BME280;5069;49.306;8.636;2023-06-22T10:35:30;100150.91;;;30.03;55.53
10060;BME280;5069;49.306;8.636;2023-06-22T10:38:32;100156.56;;;30.02;54.71
10060;BME280;5069;49.306;8.636;2023-06-22T10:41:35;100150.78;;;29.96;54.57
10060;BME280;5069;49.306;8.636;2023-06-22T10:44:36;100152.59;;;30.04;54.21
10060;BME280;5069;49.306;8.636;2023-06-22T10:47:38;100135.44;;;30.04;54.60
10060;BME280;5069;49.306;8.636;2023-06-22T10:50:40;100141.00;;;30.10;54.93
10060;BME280;5069;49.306;8.636;2023-06-22T10:53:41;100140.00;;;30.26;54.66
10060;BME280;5069;49.306;8.636;2023-06-22T10:56:42;100147.28;;;30.48;51.83
10060;BME280;5069;49.306;8.636;2023-06-22T10:59:44;100128.03;;;30.35;53.25
10060;BME280;5069;49.306;8.636;2023-06-22T11:02:45;100126.19;;;30.50;53.64
10060;BME280;5069;49.306;8.636;2023-06-22T11:05:47;100113.44;;;30.65;53.45
10060;BME280;5069;49.306;8.636;2023-06-22T11:08:49;100106.97;;;30.52;51.68
10060;BME280;5069;49.306;8.636;2023-06-22T11:12:05;100100.78;;;30.58;51.14
10060;BME280;5069;49.306;8.636;2023-06-22T11:15:08;100106.88;;;30.74;51.96
10060;BME280;5069;49.306;8.636;2023-06-22T11:18:10;100109.03;;;30.79;52.99
10060;BME280;5069;49.306;8.636;2023-06-22T11:21:11;100118.41;;;30.91;52.47
10060;BME280;5069;49.306;8.636;2023-06-22T11:24:13;100113.41;;;30.95;51.15
10060;BME280;5069;49.306;8.636;2023-06-22T11:27:15;100118.50;;;30.98;51.17
10060;BME280;5069;49.306;8.636;2023-06-22T11:30:16;100115.03;;;30.89;51.30
10060;BME280;5069;49.306;8.636;2023-06-22T11:33:18;100114.19;;;30.89;52.48
10060;BME280;5069;49.306;8.636;2023-06-22T11:36:19;100111.47;;;30.89;51.71
10060;BME280;5069;49.306;8.636;2023-06-22T11:39:21;100109.22;;;30.92;50.25
10060;BME280;5069;49.306;8.636;2023-06-22T11:42:39;100101.59;;;31.17;49.90
10060;BME280;5069;49.306;8.636;2023-06-22T11:45:41;100107.28;;;31.37;48.86
10060;BME280;5069;49.306;8.636;2023-06-22T11:48:42;100089.31;;;31.42;49.30
10060;BME280;5069;49.306;8.636;2023-06-22T11:51:43;100095.91;;;31.33;49.01
10060;BME280;5069;49.306;8.636;2023-06-22T11:54:45;100101.06;;;31.43;49.29
10060;BME280;5069;49.306;8.636;2023-06-22T11:57:57;100096.38;;;31.37;48.36
10060;BME280;5069;49.306;8.636;2023-06-22T12:01:01;100099.78;;;31.24;49.71
10060;BME280;5069;49.306;8.636;2023-06-22T12:04:02;100093.78;;;30.99;49.59
10060;BME280;5069;49.306;8.636;2023-06-22T12:07:07;100089.94;;;30.94;51.02
10060;BME280;5069;49.306;8.636;2023-06-22T12:10:09;100088.28;;;30.93;50.30
10060;BME280;5069;49.306;8.636;2023-06-22T12:13:10;100097.56;;;30.98;50.66
10060;BME280;5069;49.306;8.636;2023-06-22T12:16:12;100091.28;;;30.98;49.59
10060;BME280;5069;49.306;8.636;2023-06-22T12:19:13;100089.84;;;31.02;50.03
10060;BME280;5069;49.306;8.636;2023-06-22T12:22:15;100100.19;;;31.06;51.41
10060;BME280;5069;49.306;8.636;2023-06-22T12:25:16;100110.00;;;31.22;49.55
10060;BME280;5069;49.306;8.636;2023-06-22T12:28:18;100114.69;;;31.28;49.51
10060;BME280;5069;49.306;8.636;2023-06-22T12:31:19;100118.09;;;31.51;49.23
10060;BME280;5069;49.306;8.636;2023-06-22T12:34:22;100109.16;;;31.57;48.73
10060;BME280;5069;49.306;8.636;2023-06-22T12:37:23;100107.75;;;31.62;49.88
10060;BME280;5069;49.306;8.636;2023-06-22T12:40:25;100099.88;;;31.52;49.83
10060;BME280;5069;49.306;8.636;2023-06-22T12:43:26;100098.44;;;31.35;49.28
10060;BME280;5069;49.306;8.636;2023-06-22T12:46:28;100099.69;;;31.32;48.85
10060;BME280;5069;49.306;8.636;2023-06-22T12:49:30;100111.34;;;31.26;49.71
10060;BME280;5069;49.306;8.636;2023-06-22T12:52:31;100111.25;;;31.19;49.47
10060;BME280;5069;49.306;8.636;2023-06-22T12:55:36;100121.88;;;31.14;50.43
10060;BME280;5069;49.306;8.636;2023-06-22T12:58:37;100132.97;;;31.13;50.86
10060;BME280;5069;49.306;8.636;2023-06-22T13:01:39;100142.16;;;31.12;50.50
10060;BME280;5069;49.306;8.636;2023-06-22T13:04:40;100131.66;;;31.09;50.38
10060;BME280;5069;49.306;8.636;2023-06-22T13:07:42;100131.81;;;31.22;50.76
10060;BME280;5069;49.306;8.636;2023-06-22T13:10:44;100117.63;;;31.63;49.74
10060;BME280;5069;49.306;8.636;2023-06-22T13:13:45;100110.34;;;31.91;48.27
10060;BME280;5069;49.306;8.636;2023-06-22T13:16:47;100101.13;;;31.92;48.46
10060;BME280;5069;49.306;8.636;2023-06-22T13:19:48;100107.97;;;31.81;48.50
10060;BME280;5069;49.306;8.636;2023-06-22T13:22:50;100097.75;;;31.90;48.27
10060;BME280;5069;49.306;8.636;2023-06-22T13:25:51;100097.03;;;32.03;48.95
10060;BME280;5069;49.306;8.636;2023-06-22T13:28:53;100086.38;;;32.08;47.66
10060;BME280;5069;49.306;8.636;2023-06-22T13:31:54;100076.91;;;32.04;48.21
10060;BME280;5069;49.306;8.636;2023-06-22T13:34:58;100083.00;;;32.06;48.35
10060;BME280;5069;49.306;8.636;2023-06-22T13:37:59;100079.31;;;31.92;48.68
10060;BME280;5069;49.306;8.636;2023-06-22T13:41:01;100074.91;;;31.91;48.79
10060;BME280;5069;49.306;8.636;2023-06-22T13:44:02;100073.44;;;31.88;49.37
10060;BME280;5069;49.306;8.636;2023-06-22T13:47:06;100059.66;;;31.96;48.72
10060;BME280;5069;49.306;8.636;2023-06-22T13:50:08;100044.00;;;32.05;47.88
10060;BME280;5069;49.306;8.636;2023-06-22T13:53:09;100041.66;;;32.02;47.92
10060;BME280;5069;49.306;8.636;2023-06-22T13:56:11;100037.41;;;31.93;49.03
10060;BME280;5069;49.306;8.636;2023-06-22T13:59:12;100031.03;;;31.86;48.97
10060;BME280;5069;49.306;8.636;2023-06-22T14:02:14;100028.88;;;31.75;49.39
10060;BME280;5069;49.306;8.636;2023-06-22T14:05:15;100027.56;;;31.71;49.80
10060;BME280;5069;49.306;8.636;2023-06-22T14:08:17;100032.19;;;31.49;49.94
10060;BME280;5069;49.306;8.636;2023-06-22T14:11:38;100020.81;;;31.45;50.11
10060;BME280;5069;49.306;8.636;2023-06-22T14:14:40;100020.03;;;31.51;50.47
10060;BME280;5069;49.306;8.636;2023-06-22T14:17:41;100034.66;;;31.65;51.05
10060;BME280;5069;49.306;8.636;2023-06-22T14:20:43;100043.03;;;31.64;50.69
10060;BME280;5069;49.306;8.636;2023-06-22T14:23:44;100030.47;;;31.48;51.08
10060;BME280;5069;49.306;8.636;2023-06-22T14:26:50;100045.31;;;31.45;51.19
10060;BME280;5069;49.306;8.636;2023-06-22T14:29:52;100041.97;;;31.43;51.33
10060;BME280;5069;49.306;8.636;2023-06-22T14:32:53;100028.13;;;31.24;52.28
10060;BME280;5069;49.306;8.636;2023-06-22T14:35:55;100008.66;;;31.05;53.21
10060;BME280;5069;49.306;8.636;2023-06-22T14:38:56;100004.53;;;30.95;53.21
10060;BME280;5069;49.306;8.636;2023-06-22T14:41:58;100015.22;;;30.75;53.95
10060;BME280;5069;49.306;8.636;2023-06-22T14:44:59;100020.91;;;30.80;54.20
10060;BME280;5069;49.306;8.636;2023-06-22T14:48:01;100014.72;;;30.71;53.75
10060;BME280;5069;49.306;8.636;2023-06-22T14:51:02;100004.31;;;30.75;54.76
10060;BME280;5069;49.306;8.636;2023-06-22T14:54:04;99997.38;;;30.72;55.46
10060;BME280;5069;49.306;8.636;2023-06-22T14:57:05;99967.75;;;30.63;56.63
10060;BME280;5069;49.306;8.636;2023-06-22T15:00:07;99940.06;;;30.59;58.23
10060;BME280;5069;49.306;8.636;2023-06-22T15:03:09;99935.81;;;30.71;57.62
10060;BME280;5069;49.306;8.636;2023-06-22T15:06:18;99925.59;;;30.73;56.68
10060;BME280;5069;49.306;8.636;2023-06-22T15:09:19;99927.06;;;30.76;55.97
10060;BME280;5069;49.306;8.636;2023-06-22T15:12:21;99927.38;;;30.81;54.69
10060;BME280;5069;49.306;8.636;2023-06-22T15:15:22;99924.16;;;30.99;53.28
10060;BME280;5069;49.306;8.636;2023-06-22T15:18:24;99923.22;;;31.28;52.50
10060;BME280;5069;49.306;8.636;2023-06-22T15:21:25;99925.94;;;31.49;52.03
10060;BME280;5069;49.306;8.636;2023-06-22T15:24:27;99933.09;;;31.78;51.29
10060;BME280;5069;49.306;8.636;2023-06-22T15:27:28;99942.25;;;31.70;51.71
10060;BME280;5069;49.306;8.636;2023-06-22T15:30:30;99947.69;;;31.70;52.41
10060;BME280;5069;49.306;8.636;2023-06-22T15:33:32;99945.03;;;31.77;51.65
10060;BME280;5069;49.306;8.636;2023-06-22T15:36:34;99941.53;;;31.62;51.90
10060;BME280;5069;49.306;8.636;2023-06-22T15:39:36;99945.41;;;31.74;52.34
10060;BME280;5069;49.306;8.636;2023-06-22T15:42:37;99943.97;;;32.06;51.23
10060;BME280;5069;49.306;8.636;2023-06-22T15:45:39;99949.31;;;32.20;49.95
10060;BME280;5069;49.306;8.636;2023-06-22T15:48:40;99955.13;;;32.52;49.25
10060;BME280;5069;49.306;8.636;2023-06-22T15:51:43;99950.78;;;32.70;48.22
10060;BME280;5069;49.306;8.636;2023-06-22T15:54:45;99960.28;;;32.74;45.99
10060;BME280;5069;49.306;8.636;2023-06-22T15:57:47;99965.84;;;32.60;44.06
10060;BME280;5069;49.306;8.636;2023-06-22T16:00:48;99953.53;;;32.70;45.97
10060;BME280;5069;49.306;8.636;2023-06-22T16:03:53;99939.81;;;32.64;45.11
10060;BME280;5069;49.306;8.636;2023-06-22T16:06:55;99939.13;;;32.42;46.38